Vaggasvarre — LIIJ — position and weather

sailwx.info

Track history (hours):
 
Tides and Currents Weather Stations Pressure Air Temp Water Temp Dewpoint Dewpoint Depression Visibility Wind Speed Wind Dir Waves Ship Positions

Vaggasvarre

Last reported at 2018-Feb-19 01:30 UTC. Time now 2018-Feb-19 01:42 UTC.
Position N 68°53' E 016°30'.

Length 65 m; draft 3.2 m.

Type: Passenger vessel. MMSI: 257059800.

Date/timePositionNaut miles runAvg speedWind from/ knotsBaromVisibWave heightAir tempDewpointWater temp
2018-Feb-19 01:30N 68°53' E 016°30'0 0.0
2018-Feb-19 01:00N 68°53' E 016°30'0 0.0
2018-Feb-19 00:30N 68°53' E 016°30'0 0.0
2018-Feb-19 00:00N 68°53' E 016°30'0 0.0
2018-Feb-18 23:30N 68°53' E 016°30'0 0.0
2018-Feb-18 23:01N 68°53' E 016°30'0 0.0
2018-Feb-18 22:30N 68°53' E 016°30'2 3.6
2018-Feb-18 22:00N 68°51' E 016°30'2 3.5
2018-Feb-18 21:30N 68°53' E 016°30'2 3.7
2018-Feb-18 21:00N 68°51' E 016°30'2 3.6
2018-Feb-18 20:30N 68°53' E 016°30'2 3.7
2018-Feb-18 20:01N 68°51' E 016°30'2 3.4
2018-Feb-18 19:28N 68°53' E 016°30'2 3.8
2018-Feb-18 19:00N 68°51' E 016°30'2 3.6
2018-Feb-18 18:30N 68°53' E 016°30'2 3.5
2018-Feb-18 18:00N 68°51' E 016°29'2 3.7
2018-Feb-18 17:30N 68°53' E 016°30'0 0.0
2018-Feb-18 17:00N 68°53' E 016°30'0 0.0
2018-Feb-18 16:30N 68°53' E 016°30'1 2.9
2018-Feb-18 16:00N 68°51' E 016°30'0 0.8
2018-Feb-18 15:30N 68°51' E 016°29'1 2.4
2018-Feb-18 15:00N 68°52' E 016°30'1 1.2
2018-Feb-18 14:30N 68°53' E 016°30'2 3.5
2018-Feb-18 14:00N 68°51' E 016°29'2 3.7
2018-Feb-18 13:30N 68°53' E 016°30'0 0.0
2018-Feb-18 13:00N 68°53' E 016°30'0 0.0
2018-Feb-18 12:30N 68°53' E 016°30'0 0.0
2018-Feb-18 11:59N 68°53' E 016°30'0 0.0
2018-Feb-18 11:30N 68°53' E 016°30'0 0.0
2018-Feb-18 11:00N 68°53' E 016°30'0 0.0
2018-Feb-18 10:30N 68°53' E 016°30'2 3.7
2018-Feb-18 10:01N 68°51' E 016°30'2 3.6
2018-Feb-18 09:30N 68°53' E 016°30'2 3.7
2018-Feb-18 09:00N 68°51' E 016°29'2 3.6
2018-Feb-18 08:30N 68°53' E 016°30'0 0.0
2018-Feb-18 08:00N 68°53' E 016°30'0 0.0
2018-Feb-18 07:30N 68°53' E 016°30'0 0.0
2018-Feb-18 06:59N 68°53' E 016°30'0 0.0
2018-Feb-18 06:30N 68°53' E 016°30'0 0.0
2018-Feb-18 06:00N 68°53' E 016°30'0 0.0
2018-Feb-18 05:30N 68°53' E 016°30'0 0.0
2018-Feb-18 04:58N 68°53' E 016°30'0 0.0
2018-Feb-18 04:30N 68°53' E 016°30'0 0.0
2018-Feb-18 04:00N 68°53' E 016°30'0 0.0
2018-Feb-18 03:30N 68°53' E 016°30'0 0.0
2018-Feb-18 03:00N 68°53' E 016°30'0 0.0
2018-Feb-18 02:29N 68°53' E 016°30'0 0.0
2018-Feb-18 02:00N 68°53' E 016°30'0 0.0
2018-Feb-18 01:30N 68°53' E 016°30'0 0.0
2018-Feb-18 01:01N 68°53' E 016°30'0 0.0
2018-Feb-18 00:29N 68°53' E 016°30'1 2.8
2018-Feb-18 00:00N 68°52' E 016°33'4 7.2
2018-Feb-17 23:30N 68°49' E 016°33'0 0.6
2018-Feb-17 23:00N 68°48' E 016°33'0 0.0
2018-Feb-17 22:30N 68°48' E 016°33'0 0.0
2018-Feb-17 22:00N 68°48' E 016°33'0 0.0
2018-Feb-17 21:30N 68°48' E 016°33'0 0.0
2018-Feb-17 21:00N 68°48' E 016°33'0 0.0
2018-Feb-17 20:30N 68°48' E 016°33'0 0.0
2018-Feb-17 20:00N 68°48' E 016°33'0 0.0
2018-Feb-17 19:30N 68°48' E 016°33'0 0.0
2018-Feb-17 19:00N 68°48' E 016°33'0 0.0
2018-Feb-17 18:30N 68°48' E 016°33'0 0.0
2018-Feb-17 18:00N 68°48' E 016°33'0 0.0
2018-Feb-17 17:30N 68°48' E 016°33'0 0.0
2018-Feb-17 17:00N 68°48' E 016°33'0 0.0
2018-Feb-17 16:30N 68°48' E 016°33'0 0.0
2018-Feb-17 16:00N 68°48' E 016°33'0 0.0
2018-Feb-17 15:30N 68°48' E 016°33'0 0.0
2018-Feb-17 15:00N 68°48' E 016°33'0 0.0
2018-Feb-17 14:30N 68°48' E 016°33'0 0.0
2018-Feb-17 14:00N 68°48' E 016°33'0 0.0
2018-Feb-17 13:30N 68°48' E 016°33'0 0.0
2018-Feb-17 13:00N 68°48' E 016°33'0 0.0
2018-Feb-17 12:30N 68°48' E 016°33'0 0.0
2018-Feb-17 12:00N 68°48' E 016°33'0 0.0
2018-Feb-17 11:30N 68°48' E 016°33'0 0.0
2018-Feb-17 11:00N 68°48' E 016°33'0 0.0
2018-Feb-17 10:30N 68°48' E 016°33'0 0.0
2018-Feb-17 10:00N 68°48' E 016°33'0 0.0
2018-Feb-17 09:30N 68°48' E 016°33'0 0.0
2018-Feb-17 09:00N 68°48' E 016°33'0 0.0
2018-Feb-17 08:30N 68°48' E 016°33'0 0.0
2018-Feb-17 08:00N 68°48' E 016°33'0 0.0
2018-Feb-17 07:30N 68°48' E 016°33'0 0.0
2018-Feb-17 07:00N 68°48' E 016°33'0 0.0
2018-Feb-17 06:30N 68°48' E 016°33'0 0.0
2018-Feb-17 06:00N 68°48' E 016°33'0 0.0
2018-Feb-17 05:30N 68°48' E 016°33'0 0.0
2018-Feb-17 05:00N 68°48' E 016°33'0 0.0
2018-Feb-17 04:30N 68°48' E 016°33'0 0.0
2018-Feb-17 04:00N 68°48' E 016°33'0 0.0
2018-Feb-17 03:30N 68°48' E 016°33'0 0.0
2018-Feb-17 03:00N 68°48' E 016°33'0 0.0
2018-Feb-17 02:30N 68°48' E 016°33'0 0.0
2018-Feb-17 02:00N 68°48' E 016°33'0 0.0
2018-Feb-17 01:30N 68°48' E 016°33'0 0.0
2018-Feb-17 01:00N 68°48' E 016°33'0 0.0
2018-Feb-17 00:30N 68°48' E 016°33'0 0.0
2018-Feb-17 00:00N 68°48' E 016°33'0 0.0
2018-Feb-16 23:30N 68°48' E 016°33'0 0.0
2018-Feb-16 22:59N 68°48' E 016°33'0 0.0
2018-Feb-16 22:29N 68°48' E 016°33'0 0.0
2018-Feb-16 21:59N 68°48' E 016°33'0 0.0
2018-Feb-16 21:29N 68°48' E 016°33'0 0.0
2018-Feb-16 20:59N 68°48' E 016°33'0 0.0
2018-Feb-16 20:29N 68°48' E 016°33'0 0.0
2018-Feb-16 19:59N 68°48' E 016°33'0 0.0
2018-Feb-16 19:29N 68°48' E 016°33'0 0.0
2018-Feb-16 18:56N 68°48' E 016°33'0 0.0
2018-Feb-16 18:29N 68°48' E 016°33'0 0.0
2018-Feb-16 17:59N 68°48' E 016°33'0 0.0
2018-Feb-16 17:29N 68°48' E 016°33'0 0.0
2018-Feb-16 16:59N 68°48' E 016°33'0 0.0
2018-Feb-16 16:29N 68°48' E 016°33'0 0.0
2018-Feb-16 15:59N 68°48' E 016°33'0 0.0
2018-Feb-16 15:29N 68°48' E 016°33'0 0.0
2018-Feb-16 14:59N 68°48' E 016°33'0 0.0
2018-Feb-16 14:29N 68°48' E 016°33'0 0.0
2018-Feb-16 13:59N 68°48' E 016°33'0 0.0
2018-Feb-16 13:29N 68°48' E 016°33'0 0.0
2018-Feb-16 12:59N 68°48' E 016°33'0 0.0
2018-Feb-16 12:29N 68°48' E 016°33'0 0.0
2018-Feb-16 11:59N 68°48' E 016°33'0 0.0
2018-Feb-16 11:29N 68°48' E 016°33'0 0.0
2018-Feb-16 10:59N 68°48' E 016°33'0 0.0
2018-Feb-16 10:29N 68°48' E 016°33'0 0.0
2018-Feb-16 09:59N 68°48' E 016°33'0 0.0
2018-Feb-16 09:29N 68°48' E 016°33'0 0.0
2018-Feb-16 08:59N 68°48' E 016°33'0 0.0
2018-Feb-16 08:26N 68°48' E 016°33'0 0.0
2018-Feb-16 07:59N 68°48' E 016°33'0 0.0
2018-Feb-16 07:29N 68°48' E 016°33'0 0.0
2018-Feb-16 06:59N 68°48' E 016°33'0 0.0
2018-Feb-16 06:28N 68°48' E 016°33'0 0.0
2018-Feb-16 05:58N 68°48' E 016°33'0 0.0
2018-Feb-16 05:28N 68°48' E 016°33'0 0.0
2018-Feb-16 04:58N 68°48' E 016°33'0 0.0
2018-Feb-16 04:28N 68°48' E 016°33'0 0.0
2018-Feb-16 03:58N 68°48' E 016°33'0 0.0
2018-Feb-16 03:28N 68°48' E 016°33'0 0.0
2018-Feb-16 02:58N 68°48' E 016°33'0 0.0
2018-Feb-16 02:28N 68°48' E 016°33'0 0.0
2018-Feb-16 01:58N 68°48' E 016°33'0 0.0
2018-Feb-16 01:28N 68°48' E 016°33'0 0.0
2018-Feb-16 00:58N 68°48' E 016°33'0 0.0
2018-Feb-16 00:28N 68°48' E 016°33'0 0.0
2018-Feb-15 23:58N 68°48' E 016°33'0 0.0
2018-Feb-15 23:28N 68°48' E 016°33'0 0.0
2018-Feb-15 22:58N 68°48' E 016°33'0 0.0
2018-Feb-15 22:28N 68°48' E 016°33'0 0.0
2018-Feb-15 21:58N 68°48' E 016°33'1 1.9
2018-Feb-15 21:30N 68°48' E 016°35'2 3.3
2018-Feb-15 21:00N 68°47' E 016°36'4 8.7
2018-Feb-15 20:30N 68°49' E 016°46'510.1
2018-Feb-15 20:00N 68°53' E 016°56'510.2
2018-Feb-15 19:30N 68°56' E 017°06'5 9.9
2018-Feb-15 19:00N 69°00' E 017°15'510.3
2018-Feb-15 18:30N 69°05' E 017°22'5 9.8
2018-Feb-15 18:00N 69°07' E 017°34'510.2
2018-Feb-15 17:30N 69°09' E 017°48'510.1
2018-Feb-15 17:00N 69°11' E 018°00'4 8.9
2018-Feb-15 16:30N 69°15' E 017°58'5 9.2
2018-Feb-15 16:00N 69°20' E 018°02'5 8.9
2018-Feb-15 15:30N 69°24' E 018°06'5 9.5
2018-Feb-15 15:00N 69°29' E 018°09'510.1
2018-Feb-15 14:30N 69°31' E 018°22'510.5
2018-Feb-15 14:00N 69°33' E 018°36'611.1
2018-Feb-15 13:30N 69°35' E 018°51'5 9.5
2018-Feb-15 13:00N 69°39' E 018°59'5 9.7
2018-Feb-15 12:30N 69°43' E 019°04'5 9.5
2018-Feb-15 12:00N 69°47' E 019°14'510.1
2018-Feb-15 11:30N 69°49' E 019°27'510.3
2018-Feb-15 11:00N 69°51' E 019°41'510.1
2018-Feb-15 10:30N 69°54' E 019°53'510.1
2018-Feb-15 10:00N 69°57' E 020°04'5 9.9
2018-Feb-15 09:30N 69°59' E 020°17'5 9.7
2018-Feb-15 09:00N 69°55' E 020°24'510.2
2018-Feb-15 08:30N 69°50' E 020°25'510.4
2018-Feb-15 07:59N 69°45' E 020°25'710.2
2018-Feb-15 07:17N 69°37' E 020°23'3 9.9
2018-Feb-15 06:59N 69°35' E 020°19'  
Track history (hours):
 
Tides and Currents Weather Stations Pressure Air Temp Water Temp Dewpoint Dewpoint Depression Visibility Wind Speed Wind Dir Waves Ship Positions

Vaggasvarre

Last reported at 2018-Feb-19 01:30 UTC. Time now 2018-Feb-19 01:42 UTC.
Position N 68°53' E 016°30'.

Length 65 m; draft 3.2 m.

Type: Passenger vessel. MMSI: 257059800.

Date/timePositionNaut miles runAvg speedWind from/ knotsBaromVisibWave heightAir tempDewpointWater temp
2018-Feb-19 01:30N 68°53' E 016°30'0 0.0
2018-Feb-19 01:00N 68°53' E 016°30'0 0.0
2018-Feb-19 00:30N 68°53' E 016°30'0 0.0
2018-Feb-19 00:00N 68°53' E 016°30'0 0.0
2018-Feb-18 23:30N 68°53' E 016°30'0 0.0
2018-Feb-18 23:01N 68°53' E 016°30'0 0.0
2018-Feb-18 22:30N 68°53' E 016°30'2 3.6
2018-Feb-18 22:00N 68°51' E 016°30'2 3.5
2018-Feb-18 21:30N 68°53' E 016°30'2 3.7
2018-Feb-18 21:00N 68°51' E 016°30'2 3.6
2018-Feb-18 20:30N 68°53' E 016°30'2 3.7
2018-Feb-18 20:01N 68°51' E 016°30'2 3.4
2018-Feb-18 19:28N 68°53' E 016°30'2 3.8
2018-Feb-18 19:00N 68°51' E 016°30'2 3.6
2018-Feb-18 18:30N 68°53' E 016°30'2 3.5
2018-Feb-18 18:00N 68°51' E 016°29'2 3.7
2018-Feb-18 17:30N 68°53' E 016°30'0 0.0
2018-Feb-18 17:00N 68°53' E 016°30'0 0.0
2018-Feb-18 16:30N 68°53' E 016°30'1 2.9
2018-Feb-18 16:00N 68°51' E 016°30'0 0.8
2018-Feb-18 15:30N 68°51' E 016°29'1 2.4
2018-Feb-18 15:00N 68°52' E 016°30'1 1.2
2018-Feb-18 14:30N 68°53' E 016°30'2 3.5
2018-Feb-18 14:00N 68°51' E 016°29'2 3.7
2018-Feb-18 13:30N 68°53' E 016°30'0 0.0
2018-Feb-18 13:00N 68°53' E 016°30'0 0.0
2018-Feb-18 12:30N 68°53' E 016°30'0 0.0
2018-Feb-18 11:59N 68°53' E 016°30'0 0.0
2018-Feb-18 11:30N 68°53' E 016°30'0 0.0
2018-Feb-18 11:00N 68°53' E 016°30'0 0.0
2018-Feb-18 10:30N 68°53' E 016°30'2 3.7
2018-Feb-18 10:01N 68°51' E 016°30'2 3.6
2018-Feb-18 09:30N 68°53' E 016°30'2 3.7
2018-Feb-18 09:00N 68°51' E 016°29'2 3.6
2018-Feb-18 08:30N 68°53' E 016°30'0 0.0
2018-Feb-18 08:00N 68°53' E 016°30'0 0.0
2018-Feb-18 07:30N 68°53' E 016°30'0 0.0
2018-Feb-18 06:59N 68°53' E 016°30'0 0.0
2018-Feb-18 06:30N 68°53' E 016°30'0 0.0
2018-Feb-18 06:00N 68°53' E 016°30'0 0.0
2018-Feb-18 05:30N 68°53' E 016°30'0 0.0
2018-Feb-18 04:58N 68°53' E 016°30'0 0.0
2018-Feb-18 04:30N 68°53' E 016°30'0 0.0
2018-Feb-18 04:00N 68°53' E 016°30'0 0.0
2018-Feb-18 03:30N 68°53' E 016°30'0 0.0
2018-Feb-18 03:00N 68°53' E 016°30'0 0.0
2018-Feb-18 02:29N 68°53' E 016°30'0 0.0
2018-Feb-18 02:00N 68°53' E 016°30'0 0.0
2018-Feb-18 01:30N 68°53' E 016°30'0 0.0
2018-Feb-18 01:01N 68°53' E 016°30'0 0.0
2018-Feb-18 00:29N 68°53' E 016°30'1 2.8
2018-Feb-18 00:00N 68°52' E 016°33'4 7.2
2018-Feb-17 23:30N 68°49' E 016°33'0 0.6
2018-Feb-17 23:00N 68°48' E 016°33'0 0.0
2018-Feb-17 22:30N 68°48' E 016°33'0 0.0
2018-Feb-17 22:00N 68°48' E 016°33'0 0.0
2018-Feb-17 21:30N 68°48' E 016°33'0 0.0
2018-Feb-17 21:00N 68°48' E 016°33'0 0.0
2018-Feb-17 20:30N 68°48' E 016°33'0 0.0
2018-Feb-17 20:00N 68°48' E 016°33'0 0.0
2018-Feb-17 19:30N 68°48' E 016°33'0 0.0
2018-Feb-17 19:00N 68°48' E 016°33'0 0.0
2018-Feb-17 18:30N 68°48' E 016°33'0 0.0
2018-Feb-17 18:00N 68°48' E 016°33'0 0.0
2018-Feb-17 17:30N 68°48' E 016°33'0 0.0
2018-Feb-17 17:00N 68°48' E 016°33'0 0.0
2018-Feb-17 16:30N 68°48' E 016°33'0 0.0
2018-Feb-17 16:00N 68°48' E 016°33'0 0.0
2018-Feb-17 15:30N 68°48' E 016°33'0 0.0
2018-Feb-17 15:00N 68°48' E 016°33'0 0.0
2018-Feb-17 14:30N 68°48' E 016°33'0 0.0
2018-Feb-17 14:00N 68°48' E 016°33'0 0.0
2018-Feb-17 13:30N 68°48' E 016°33'0 0.0
2018-Feb-17 13:00N 68°48' E 016°33'0 0.0
2018-Feb-17 12:30N 68°48' E 016°33'0 0.0
2018-Feb-17 12:00N 68°48' E 016°33'0 0.0
2018-Feb-17 11:30N 68°48' E 016°33'0 0.0
2018-Feb-17 11:00N 68°48' E 016°33'0 0.0
2018-Feb-17 10:30N 68°48' E 016°33'0 0.0
2018-Feb-17 10:00N 68°48' E 016°33'0 0.0
2018-Feb-17 09:30N 68°48' E 016°33'0 0.0
2018-Feb-17 09:00N 68°48' E 016°33'0 0.0
2018-Feb-17 08:30N 68°48' E 016°33'0 0.0
2018-Feb-17 08:00N 68°48' E 016°33'0 0.0
2018-Feb-17 07:30N 68°48' E 016°33'0 0.0
2018-Feb-17 07:00N 68°48' E 016°33'0 0.0
2018-Feb-17 06:30N 68°48' E 016°33'0 0.0
2018-Feb-17 06:00N 68°48' E 016°33'0 0.0
2018-Feb-17 05:30N 68°48' E 016°33'0 0.0
2018-Feb-17 05:00N 68°48' E 016°33'0 0.0
2018-Feb-17 04:30N 68°48' E 016°33'0 0.0
2018-Feb-17 04:00N 68°48' E 016°33'0 0.0
2018-Feb-17 03:30N 68°48' E 016°33'0 0.0
2018-Feb-17 03:00N 68°48' E 016°33'0 0.0
2018-Feb-17 02:30N 68°48' E 016°33'0 0.0
2018-Feb-17 02:00N 68°48' E 016°33'0 0.0
2018-Feb-17 01:30N 68°48' E 016°33'0 0.0
2018-Feb-17 01:00N 68°48' E 016°33'0 0.0
2018-Feb-17 00:30N 68°48' E 016°33'0 0.0
2018-Feb-17 00:00N 68°48' E 016°33'0 0.0
2018-Feb-16 23:30N 68°48' E 016°33'0 0.0
2018-Feb-16 22:59N 68°48' E 016°33'0 0.0
2018-Feb-16 22:29N 68°48' E 016°33'0 0.0
2018-Feb-16 21:59N 68°48' E 016°33'0 0.0
2018-Feb-16 21:29N 68°48' E 016°33'0 0.0
2018-Feb-16 20:59N 68°48' E 016°33'0 0.0
2018-Feb-16 20:29N 68°48' E 016°33'0 0.0
2018-Feb-16 19:59N 68°48' E 016°33'0 0.0
2018-Feb-16 19:29N 68°48' E 016°33'0 0.0
2018-Feb-16 18:56N 68°48' E 016°33'0 0.0
2018-Feb-16 18:29N 68°48' E 016°33'0 0.0
2018-Feb-16 17:59N 68°48' E 016°33'0 0.0
2018-Feb-16 17:29N 68°48' E 016°33'0 0.0
2018-Feb-16 16:59N 68°48' E 016°33'0 0.0
2018-Feb-16 16:29N 68°48' E 016°33'0 0.0
2018-Feb-16 15:59N 68°48' E 016°33'0 0.0
2018-Feb-16 15:29N 68°48' E 016°33'0 0.0
2018-Feb-16 14:59N 68°48' E 016°33'0 0.0
2018-Feb-16 14:29N 68°48' E 016°33'0 0.0
2018-Feb-16 13:59N 68°48' E 016°33'0 0.0
2018-Feb-16 13:29N 68°48' E 016°33'0 0.0
2018-Feb-16 12:59N 68°48' E 016°33'0 0.0
2018-Feb-16 12:29N 68°48' E 016°33'0 0.0
2018-Feb-16 11:59N 68°48' E 016°33'0 0.0
2018-Feb-16 11:29N 68°48' E 016°33'0 0.0
2018-Feb-16 10:59N 68°48' E 016°33'0 0.0
2018-Feb-16 10:29N 68°48' E 016°33'0 0.0
2018-Feb-16 09:59N 68°48' E 016°33'0 0.0
2018-Feb-16 09:29N 68°48' E 016°33'0 0.0
2018-Feb-16 08:59N 68°48' E 016°33'0 0.0
2018-Feb-16 08:26N 68°48' E 016°33'0 0.0
2018-Feb-16 07:59N 68°48' E 016°33'0 0.0
2018-Feb-16 07:29N 68°48' E 016°33'0 0.0
2018-Feb-16 06:59N 68°48' E 016°33'0 0.0
2018-Feb-16 06:28N 68°48' E 016°33'0 0.0
2018-Feb-16 05:58N 68°48' E 016°33'0 0.0
2018-Feb-16 05:28N 68°48' E 016°33'0 0.0
2018-Feb-16 04:58N 68°48' E 016°33'0 0.0
2018-Feb-16 04:28N 68°48' E 016°33'0 0.0
2018-Feb-16 03:58N 68°48' E 016°33'0 0.0
2018-Feb-16 03:28N 68°48' E 016°33'0 0.0
2018-Feb-16 02:58N 68°48' E 016°33'0 0.0
2018-Feb-16 02:28N 68°48' E 016°33'0 0.0
2018-Feb-16 01:58N 68°48' E 016°33'0 0.0
2018-Feb-16 01:28N 68°48' E 016°33'0 0.0
2018-Feb-16 00:58N 68°48' E 016°33'0 0.0
2018-Feb-16 00:28N 68°48' E 016°33'0 0.0
2018-Feb-15 23:58N 68°48' E 016°33'0 0.0
2018-Feb-15 23:28N 68°48' E 016°33'0 0.0
2018-Feb-15 22:58N 68°48' E 016°33'0 0.0
2018-Feb-15 22:28N 68°48' E 016°33'0 0.0
2018-Feb-15 21:58N 68°48' E 016°33'1 1.9
2018-Feb-15 21:30N 68°48' E 016°35'2 3.3
2018-Feb-15 21:00N 68°47' E 016°36'4 8.7
2018-Feb-15 20:30N 68°49' E 016°46'510.1
2018-Feb-15 20:00N 68°53' E 016°56'510.2
2018-Feb-15 19:30N 68°56' E 017°06'5 9.9
2018-Feb-15 19:00N 69°00' E 017°15'510.3
2018-Feb-15 18:30N 69°05' E 017°22'5 9.8
2018-Feb-15 18:00N 69°07' E 017°34'510.2
2018-Feb-15 17:30N 69°09' E 017°48'510.1
2018-Feb-15 17:00N 69°11' E 018°00'4 8.9
2018-Feb-15 16:30N 69°15' E 017°58'5 9.2
2018-Feb-15 16:00N 69°20' E 018°02'5 8.9
2018-Feb-15 15:30N 69°24' E 018°06'5 9.5
2018-Feb-15 15:00N 69°29' E 018°09'510.1
2018-Feb-15 14:30N 69°31' E 018°22'510.5
2018-Feb-15 14:00N 69°33' E 018°36'611.1
2018-Feb-15 13:30N 69°35' E 018°51'5 9.5
2018-Feb-15 13:00N 69°39' E 018°59'5 9.7
2018-Feb-15 12:30N 69°43' E 019°04'5 9.5
2018-Feb-15 12:00N 69°47' E 019°14'510.1
2018-Feb-15 11:30N 69°49' E 019°27'510.3
2018-Feb-15 11:00N 69°51' E 019°41'510.1
2018-Feb-15 10:30N 69°54' E 019°53'510.1
2018-Feb-15 10:00N 69°57' E 020°04'5 9.9
2018-Feb-15 09:30N 69°59' E 020°17'5 9.7
2018-Feb-15 09:00N 69°55' E 020°24'510.2
2018-Feb-15 08:30N 69°50' E 020°25'510.4
2018-Feb-15 07:59N 69°45' E 020°25'710.2
2018-Feb-15 07:17N 69°37' E 020°23'3 9.9
2018-Feb-15 06:59N 69°35' E 020°19'  

Dump ship's entire track history